sensor_id;sensor_type;location;lat;lon;timestamp;temperature;humidity
6142;DHT22;71289;51.552;6.210;2024-03-06T00:02:18;6.60;99.90
6142;DHT22;71289;51.552;6.210;2024-03-06T00:04:44;6.50;99.90
6142;DHT22;71289;51.552;6.210;2024-03-06T00:07:10;6.60;99.90
6142;DHT22;71289;51.552;6.210;2024-03-06T00:09:36;6.50;99.90
6142;DHT22;71289;51.552;6.210;2024-03-06T00:12:02;6.40;99.90
6142;DHT22;71289;51.552;6.210;2024-03-06T00:14:28;6.50;99.90
6142;DHT22;71289;51.552;6.210;2024-03-06T00:16:54;6.60;99.90
6142;DHT22;71289;51.552;6.210;2024-03-06T00:19:21;6.60;99.90
6142;DHT22;71289;51.552;6.210;2024-03-06T00:21:47;6.60;99.90
6142;DHT22;71289;51.552;6.210;2024-03-06T00:24:13;6.60;99.90
6142;DHT22;71289;51.552;6.210;2024-03-06T00:26:41;6.50;99.90
6142;DHT22;71289;51.552;6.210;2024-03-06T00:29:06;6.30;99.90
6142;DHT22;71289;51.552;6.210;2024-03-06T00:31:32;6.40;99.90
6142;DHT22;71289;51.552;6.210;2024-03-06T00:33:58;6.40;99.90
6142;DHT22;71289;51.552;6.210;2024-03-06T00:36:23;6.40;99.90
6142;DHT22;71289;51.552;6.210;2024-03-06T00:38:49;6.40;99.90
6142;DHT22;71289;51.552;6.210;2024-03-06T00:41:14;6.40;99.90
6142;DHT22;71289;51.552;6.210;2024-03-06T00:43:40;6.40;99.90
6142;DHT22;71289;51.552;6.210;2024-03-06T00:46:05;6.90;99.90
6142;DHT22;71289;51.552;6.210;2024-03-06T00:48:31;6.40;99.90
6142;DHT22;71289;51.552;6.210;2024-03-06T00:50:57;6.40;99.90
6142;DHT22;71289;51.552;6.210;2024-03-06T00:53:22;6.30;99.90
6142;DHT22;71289;51.552;6.210;2024-03-06T00:55:48;6.40;99.90
6142;DHT22;71289;51.552;6.210;2024-03-06T00:58:13;6.30;99.90
6142;DHT22;71289;51.552;6.210;2024-03-06T01:00:39;6.30;99.90
6142;DHT22;71289;51.552;6.210;2024-03-06T01:03:04;6.30;99.90
6142;DHT22;71289;51.552;6.210;2024-03-06T01:05:31;6.40;99.90
6142;DHT22;71289;51.552;6.210;2024-03-06T01:07:56;6.30;99.90
6142;DHT22;71289;51.552;6.210;2024-03-06T01:10:22;6.30;99.90
6142;DHT22;71289;51.552;6.210;2024-03-06T01:12:48;6.30;99.90
6142;DHT22;71289;51.552;6.210;2024-03-06T01:15:13;6.60;99.90
6142;DHT22;71289;51.552;6.210;2024-03-06T01:17:39;6.30;99.90
6142;DHT22;71289;51.552;6.210;2024-03-06T01:20:05;6.30;99.90
6142;DHT22;71289;51.552;6.210;2024-03-06T01:22:34;6.30;99.90
6142;DHT22;71289;51.552;6.210;2024-03-06T01:25:00;6.60;99.90
6142;DHT22;71289;51.552;6.210;2024-03-06T01:27:28;6.40;99.90
6142;DHT22;71289;51.552;6.210;2024-03-06T01:29:54;6.20;99.90
6142;DHT22;71289;51.552;6.210;2024-03-06T01:32:20;6.20;99.90
6142;DHT22;71289;51.552;6.210;2024-03-06T01:34:45;6.50;99.90
6142;DHT22;71289;51.552;6.210;2024-03-06T01:37:11;6.20;99.90
6142;DHT22;71289;51.552;6.210;2024-03-06T01:39:37;6.30;99.90
6142;DHT22;71289;51.552;6.210;2024-03-06T01:42:03;6.20;99.90
6142;DHT22;71289;51.552;6.210;2024-03-06T01:44:29;6.10;99.90
6142;DHT22;71289;51.552;6.210;2024-03-06T01:46:54;6.10;99.90
6142;DHT22;71289;51.552;6.210;2024-03-06T01:49:21;6.10;99.90
6142;DHT22;71289;51.552;6.210;2024-03-06T01:51:53;6.00;99.90
6142;DHT22;71289;51.552;6.210;2024-03-06T01:54:19;6.10;99.90
6142;DHT22;71289;51.552;6.210;2024-03-06T01:56:46;6.10;99.90
6142;DHT22;71289;51.552;6.210;2024-03-06T01:59:13;6.10;99.90
6142;DHT22;71289;51.552;6.210;2024-03-06T02:01:40;6.10;99.90
6142;DHT22;71289;51.552;6.210;2024-03-06T02:04:09;6.10;99.90
6142;DHT22;71289;51.552;6.210;2024-03-06T02:06:38;6.10;99.90
6142;DHT22;71289;51.552;6.210;2024-03-06T02:09:04;6.10;99.90
6142;DHT22;71289;51.552;6.210;2024-03-06T02:11:29;6.00;99.90
6142;DHT22;71289;51.552;6.210;2024-03-06T02:13:56;6.20;99.90
6142;DHT22;71289;51.552;6.210;2024-03-06T02:16:21;6.20;99.90
6142;DHT22;71289;51.552;6.210;2024-03-06T02:18:56;6.30;99.90
6142;DHT22;71289;51.552;6.210;2024-03-06T02:21:23;6.30;99.90
6142;DHT22;71289;51.552;6.210;2024-03-06T02:23:49;6.30;99.90
6142;DHT22;71289;51.552;6.210;2024-03-06T02:26:17;6.10;99.90
6142;DHT22;71289;51.552;6.210;2024-03-06T02:28:49;6.10;99.90
6142;DHT22;71289;51.552;6.210;2024-03-06T02:31:18;6.10;99.90
6142;DHT22;71289;51.552;6.210;2024-03-06T02:33:45;6.10;99.90
6142;DHT22;71289;51.552;6.210;2024-03-06T02:36:16;6.10;99.90
6142;DHT22;71289;51.552;6.210;2024-03-06T02:38:47;6.00;99.90
6142;DHT22;71289;51.552;6.210;2024-03-06T02:41:13;6.00;99.90
6142;DHT22;71289;51.552;6.210;2024-03-06T02:43:41;6.00;99.90
6142;DHT22;71289;51.552;6.210;2024-03-06T02:46:08;6.00;99.90
6142;DHT22;71289;51.552;6.210;2024-03-06T02:48:34;5.90;99.90
6142;DHT22;71289;51.552;6.210;2024-03-06T02:50:59;5.90;99.90
6142;DHT22;71289;51.552;6.210;2024-03-06T02:53:25;5.80;99.90
6142;DHT22;71289;51.552;6.210;2024-03-06T02:55:51;5.80;99.90
6142;DHT22;71289;51.552;6.210;2024-03-06T02:58:16;5.90;99.90
6142;DHT22;71289;51.552;6.210;2024-03-06T03:00:42;5.90;99.90
6142;DHT22;71289;51.552;6.210;2024-03-06T03:03:09;5.90;99.90
6142;DHT22;71289;51.552;6.210;2024-03-06T03:05:36;5.90;99.90
6142;DHT22;71289;51.552;6.210;2024-03-06T03:08:01;5.90;99.90
6142;DHT22;71289;51.552;6.210;2024-03-06T03:10:29;5.90;99.90
6142;DHT22;71289;51.552;6.210;2024-03-06T03:12:55;6.00;99.90
6142;DHT22;71289;51.552;6.210;2024-03-06T03:15:20;5.60;99.90
6142;DHT22;71289;51.552;6.210;2024-03-06T03:17:46;5.60;99.90
6142;DHT22;71289;51.552;6.210;2024-03-06T03:20:12;5.50;99.90
6142;DHT22;71289;51.552;6.210;2024-03-06T03:22:41;5.50;99.90
6142;DHT22;71289;51.552;6.210;2024-03-06T03:25:10;5.40;99.90
6142;DHT22;71289;51.552;6.210;2024-03-06T03:27:37;5.40;99.90
6142;DHT22;71289;51.552;6.210;2024-03-06T03:30:08;5.40;99.90
6142;DHT22;71289;51.552;6.210;2024-03-06T03:32:37;5.30;99.90
6142;DHT22;71289;51.552;6.210;2024-03-06T03:35:06;5.30;99.90
6142;DHT22;71289;51.552;6.210;2024-03-06T03:37:32;5.30;99.90
6142;DHT22;71289;51.552;6.210;2024-03-06T03:39:58;5.30;99.90
6142;DHT22;71289;51.552;6.210;2024-03-06T03:42:24;5.20;99.90
6142;DHT22;71289;51.552;6.210;2024-03-06T03:44:50;5.10;99.90
6142;DHT22;71289;51.552;6.210;2024-03-06T03:47:15;5.10;99.90
6142;DHT22;71289;51.552;6.210;2024-03-06T03:49:41;5.10;99.90
6142;DHT22;71289;51.552;6.210;2024-03-06T03:52:06;5.10;99.90
6142;DHT22;71289;51.552;6.210;2024-03-06T03:54:32;5.00;99.90
6142;DHT22;71289;51.552;6.210;2024-03-06T03:56:58;4.80;99.90
6142;DHT22;71289;51.552;6.210;2024-03-06T03:59:24;4.80;99.90
6142;DHT22;71289;51.552;6.210;2024-03-06T04:01:50;4.70;99.90
6142;DHT22;71289;51.552;6.210;2024-03-06T04:04:16;4.60;99.90
6142;DHT22;71289;51.552;6.210;2024-03-06T04:06:41;4.60;99.90
6142;DHT22;71289;51.552;6.210;2024-03-06T04:09:07;4.50;99.90
6142;DHT22;71289;51.552;6.210;2024-03-06T04:11:38;4.50;99.90
6142;DHT22;71289;51.552;6.210;2024-03-06T04:14:04;4.30;99.90
6142;DHT22;71289;51.552;6.210;2024-03-06T04:16:32;4.30;99.90
6142;DHT22;71289;51.552;6.210;2024-03-06T04:18:57;4.30;99.90
6142;DHT22;71289;51.552;6.210;2024-03-06T04:21:23;4.30;99.90
6142;DHT22;71289;51.552;6.210;2024-03-06T04:23:48;4.30;99.90
6142;DHT22;71289;51.552;6.210;2024-03-06T04:26:14;4.40;99.90
6142;DHT22;71289;51.552;6.210;2024-03-06T04:28:40;4.50;99.90
6142;DHT22;71289;51.552;6.210;2024-03-06T04:31:05;4.50;99.90
6142;DHT22;71289;51.552;6.210;2024-03-06T04:33:31;4.40;99.90
6142;DHT22;71289;51.552;6.210;2024-03-06T04:35:57;4.40;99.90
6142;DHT22;71289;51.552;6.210;2024-03-06T04:38:22;4.40;99.90
6142;DHT22;71289;51.552;6.210;2024-03-06T04:40:48;4.70;99.90
6142;DHT22;71289;51.552;6.210;2024-03-06T04:43:13;4.50;99.90
6142;DHT22;71289;51.552;6.210;2024-03-06T04:45:39;4.50;99.90
6142;DHT22;71289;51.552;6.210;2024-03-06T04:48:05;4.50;99.90
6142;DHT22;71289;51.552;6.210;2024-03-06T04:50:31;4.50;99.90
6142;DHT22;71289;51.552;6.210;2024-03-06T04:52:57;4.40;99.90
6142;DHT22;71289;51.552;6.210;2024-03-06T04:55:22;4.30;99.90
6142;DHT22;71289;51.552;6.210;2024-03-06T04:57:48;4.20;99.90
6142;DHT22;71289;51.552;6.210;2024-03-06T05:00:14;4.00;99.90
6142;DHT22;71289;51.552;6.210;2024-03-06T05:02:40;4.00;99.90
6142;DHT22;71289;51.552;6.210;2024-03-06T05:05:07;4.40;99.90
6142;DHT22;71289;51.552;6.210;2024-03-06T05:07:33;4.10;99.90
6142;DHT22;71289;51.552;6.210;2024-03-06T05:09:59;4.20;99.90
6142;DHT22;71289;51.552;6.210;2024-03-06T05:12:25;4.20;99.90
6142;DHT22;71289;51.552;6.210;2024-03-06T05:14:51;4.20;99.90
6142;DHT22;71289;51.552;6.210;2024-03-06T05:17:17;4.10;99.90
6142;DHT22;71289;51.552;6.210;2024-03-06T05:19:44;3.90;99.90
6142;DHT22;71289;51.552;6.210;2024-03-06T05:22:10;3.90;99.90
6142;DHT22;71289;51.552;6.210;2024-03-06T05:24:40;3.90;99.90
6142;DHT22;71289;51.552;6.210;2024-03-06T05:27:05;4.20;99.90
6142;DHT22;71289;51.552;6.210;2024-03-06T05:29:31;4.40;99.90
6142;DHT22;71289;51.552;6.210;2024-03-06T05:31:57;4.10;99.90
6142;DHT22;71289;51.552;6.210;2024-03-06T05:34:23;4.00;99.90
6142;DHT22;71289;51.552;6.210;2024-03-06T05:36:48;3.90;99.90
6142;DHT22;71289;51.552;6.210;2024-03-06T05:39:14;4.30;99.90
6142;DHT22;71289;51.552;6.210;2024-03-06T05:41:40;3.80;99.90
6142;DHT22;71289;51.552;6.210;2024-03-06T05:44:07;3.80;99.90
6142;DHT22;71289;51.552;6.210;2024-03-06T05:46:33;3.80;99.90
6142;DHT22;71289;51.552;6.210;2024-03-06T05:48:59;3.80;99.90
6142;DHT22;71289;51.552;6.210;2024-03-06T05:51:24;3.70;99.90
6142;DHT22;71289;51.552;6.210;2024-03-06T05:53:50;3.50;99.90
6142;DHT22;71289;51.552;6.210;2024-03-06T05:56:17;3.40;99.90
6142;DHT22;71289;51.552;6.210;2024-03-06T05:58:43;3.40;99.90
6142;DHT22;71289;51.552;6.210;2024-03-06T06:01:12;3.30;99.90
6142;DHT22;71289;51.552;6.210;2024-03-06T06:03:41;3.20;99.90
6142;DHT22;71289;51.552;6.210;2024-03-06T06:06:06;3.30;99.90
6142;DHT22;71289;51.552;6.210;2024-03-06T06:08:34;3.30;99.90
6142;DHT22;71289;51.552;6.210;2024-03-06T06:11:00;3.30;99.90
6142;DHT22;71289;51.552;6.210;2024-03-06T06:13:28;3.20;99.90
6142;DHT22;71289;51.552;6.210;2024-03-06T06:15:54;3.20;99.90
6142;DHT22;71289;51.552;6.210;2024-03-06T06:18:19;3.20;99.90
6142;DHT22;71289;51.552;6.210;2024-03-06T06:20:45;3.30;99.90
6142;DHT22;71289;51.552;6.210;2024-03-06T06:23:11;3.20;99.90
6142;DHT22;71289;51.552;6.210;2024-03-06T06:25:36;3.30;99.90
6142;DHT22;71289;51.552;6.210;2024-03-06T06:28:02;3.30;99.90
6142;DHT22;71289;51.552;6.210;2024-03-06T06:30:29;3.30;99.90
6142;DHT22;71289;51.552;6.210;2024-03-06T06:32:55;3.30;99.90
6142;DHT22;71289;51.552;6.210;2024-03-06T06:35:21;3.40;99.90
6142;DHT22;71289;51.552;6.210;2024-03-06T06:37:47;3.40;99.90
6142;DHT22;71289;51.552;6.210;2024-03-06T06:40:13;3.40;99.90
6142;DHT22;71289;51.552;6.210;2024-03-06T06:42:48;3.50;99.90
6142;DHT22;71289;51.552;6.210;2024-03-06T06:45:20;3.50;99.90
6142;DHT22;71289;51.552;6.210;2024-03-06T06:47:48;3.50;99.90
6142;DHT22;71289;51.552;6.210;2024-03-06T06:50:14;3.60;99.90
6142;DHT22;71289;51.552;6.210;2024-03-06T06:52:40;3.70;99.90
6142;DHT22;71289;51.552;6.210;2024-03-06T06:55:06;3.70;99.90
6142;DHT22;71289;51.552;6.210;2024-03-06T06:57:32;3.80;99.90
6142;DHT22;71289;51.552;6.210;2024-03-06T06:59:59;3.80;99.90
6142;DHT22;71289;51.552;6.210;2024-03-06T07:02:24;3.90;99.90
6142;DHT22;71289;51.552;6.210;2024-03-06T07:04:50;4.00;99.90
6142;DHT22;71289;51.552;6.210;2024-03-06T07:07:16;4.10;99.90
6142;DHT22;71289;51.552;6.210;2024-03-06T07:09:43;4.20;99.90
6142;DHT22;71289;51.552;6.210;2024-03-06T07:12:09;4.10;99.90
6142;DHT22;71289;51.552;6.210;2024-03-06T07:14:34;4.00;99.90
6142;DHT22;71289;51.552;6.210;2024-03-06T07:17:00;4.00;99.90
6142;DHT22;71289;51.552;6.210;2024-03-06T07:19:26;4.00;99.90
6142;DHT22;71289;51.552;6.210;2024-03-06T07:21:51;4.00;99.90
6142;DHT22;71289;51.552;6.210;2024-03-06T07:24:18;4.30;99.90
6142;DHT22;71289;51.552;6.210;2024-03-06T07:26:44;3.90;99.90
6142;DHT22;71289;51.552;6.210;2024-03-06T07:29:10;3.80;99.90
6142;DHT22;71289;51.552;6.210;2024-03-06T07:31:41;3.80;99.90
6142;DHT22;71289;51.552;6.210;2024-03-06T07:34:07;3.70;99.90
6142;DHT22;71289;51.552;6.210;2024-03-06T07:36:34;3.80;99.90
6142;DHT22;71289;51.552;6.210;2024-03-06T07:39:01;3.90;99.90
6142;DHT22;71289;51.552;6.210;2024-03-06T07:41:26;3.80;99.90
6142;DHT22;71289;51.552;6.210;2024-03-06T07:43:52;3.80;99.90
6142;DHT22;71289;51.552;6.210;2024-03-06T07:46:18;3.80;99.90
6142;DHT22;71289;51.552;6.210;2024-03-06T07:48:43;3.80;99.90
6142;DHT22;71289;51.552;6.210;2024-03-06T07:51:12;3.90;99.90
6142;DHT22;71289;51.552;6.210;2024-03-06T07:53:38;3.90;99.90
6142;DHT22;71289;51.552;6.210;2024-03-06T07:56:04;4.10;99.90
6142;DHT22;71289;51.552;6.210;2024-03-06T07:58:29;4.10;99.90
6142;DHT22;71289;51.552;6.210;2024-03-06T08:00:55;4.20;99.90
6142;DHT22;71289;51.552;6.210;2024-03-06T08:03:22;4.60;99.90
6142;DHT22;71289;51.552;6.210;2024-03-06T08:05:52;4.20;99.90
6142;DHT22;71289;51.552;6.210;2024-03-06T08:08:21;4.60;99.90
6142;DHT22;71289;51.552;6.210;2024-03-06T08:10:47;4.50;99.90
6142;DHT22;71289;51.552;6.210;2024-03-06T08:13:13;4.50;99.90
6142;DHT22;71289;51.552;6.210;2024-03-06T08:15:39;4.60;99.90
6142;DHT22;71289;51.552;6.210;2024-03-06T08:18:05;4.70;99.90
6142;DHT22;71289;51.552;6.210;2024-03-06T08:20:32;4.80;99.90
6142;DHT22;71289;51.552;6.210;2024-03-06T08:22:58;4.80;99.90
6142;DHT22;71289;51.552;6.210;2024-03-06T08:25:24;5.00;99.90
6142;DHT22;71289;51.552;6.210;2024-03-06T08:27:50;5.10;99.90
6142;DHT22;71289;51.552;6.210;2024-03-06T08:30:15;5.10;99.90
6142;DHT22;71289;51.552;6.210;2024-03-06T08:32:41;5.10;99.90
6142;DHT22;71289;51.552;6.210;2024-03-06T08:35:12;5.60;99.90
6142;DHT22;71289;51.552;6.210;2024-03-06T08:37:41;5.40;99.90
6142;DHT22;71289;51.552;6.210;2024-03-06T08:40:07;5.40;99.90
6142;DHT22;71289;51.552;6.210;2024-03-06T08:42:35;5.50;99.90
6142;DHT22;71289;51.552;6.210;2024-03-06T08:45:01;5.60;99.90
6142;DHT22;71289;51.552;6.210;2024-03-06T08:47:27;5.50;99.90
6142;DHT22;71289;51.552;6.210;2024-03-06T08:49:53;6.10;99.90
6142;DHT22;71289;51.552;6.210;2024-03-06T08:52:19;5.90;99.90
6142;DHT22;71289;51.552;6.210;2024-03-06T08:54:45;5.70;99.90
6142;DHT22;71289;51.552;6.210;2024-03-06T08:57:11;5.80;99.90
6142;DHT22;71289;51.552;6.210;2024-03-06T08:59:36;5.90;99.90
6142;DHT22;71289;51.552;6.210;2024-03-06T09:02:18;6.20;99.90
6142;DHT22;71289;51.552;6.210;2024-03-06T09:04:45;5.90;99.90
6142;DHT22;71289;51.552;6.210;2024-03-06T09:07:12;5.90;99.90
6142;DHT22;71289;51.552;6.210;2024-03-06T09:09:38;6.10;99.90
6142;DHT22;71289;51.552;6.210;2024-03-06T09:12:05;6.50;99.90
6142;DHT22;71289;51.552;6.210;2024-03-06T09:14:35;6.30;99.90
6142;DHT22;71289;51.552;6.210;2024-03-06T09:17:01;6.30;99.90
6142;DHT22;71289;51.552;6.210;2024-03-06T09:19:27;6.30;99.90
6142;DHT22;71289;51.552;6.210;2024-03-06T09:21:52;6.40;99.90
6142;DHT22;71289;51.552;6.210;2024-03-06T09:24:19;6.50;99.90
6142;DHT22;71289;51.552;6.210;2024-03-06T09:26:45;6.60;99.90
6142;DHT22;71289;51.552;6.210;2024-03-06T09:29:11;6.60;99.90
6142;DHT22;71289;51.552;6.210;2024-03-06T09:31:36;6.70;99.90
6142;DHT22;71289;51.552;6.210;2024-03-06T09:34:04;6.80;99.90
6142;DHT22;71289;51.552;6.210;2024-03-06T09:36:30;6.90;99.90
6142;DHT22;71289;51.552;6.210;2024-03-06T09:39:01;7.00;99.90
6142;DHT22;71289;51.552;6.210;2024-03-06T09:41:26;7.10;99.90
6142;DHT22;71289;51.552;6.210;2024-03-06T09:43:52;7.20;99.90
6142;DHT22;71289;51.552;6.210;2024-03-06T09:46:18;7.30;99.90
6142;DHT22;71289;51.552;6.210;2024-03-06T09:48:47;7.60;99.90
6142;DHT22;71289;51.552;6.210;2024-03-06T09:51:14;7.60;99.90
6142;DHT22;71289;51.552;6.210;2024-03-06T09:53:42;7.60;99.90
6142;DHT22;71289;51.552;6.210;2024-03-06T09:56:10;7.70;99.90
6142;DHT22;71289;51.552;6.210;2024-03-06T09:58:36;7.80;99.90
6142;DHT22;71289;51.552;6.210;2024-03-06T10:01:02;8.00;99.90
6142;DHT22;71289;51.552;6.210;2024-03-06T10:03:29;8.20;99.90
6142;DHT22;71289;51.552;6.210;2024-03-06T10:05:55;8.30;99.90
6142;DHT22;71289;51.552;6.210;2024-03-06T10:08:21;8.50;99.90
6142;DHT22;71289;51.552;6.210;2024-03-06T10:10:50;8.60;99.90
6142;DHT22;71289;51.552;6.210;2024-03-06T10:13:17;8.80;99.90
6142;DHT22;71289;51.552;6.210;2024-03-06T10:15:55;8.90;99.90
6142;DHT22;71289;51.552;6.210;2024-03-06T10:18:21;9.30;99.90
6142;DHT22;71289;51.552;6.210;2024-03-06T10:20:46;9.10;99.90
6142;DHT22;71289;51.552;6.210;2024-03-06T10:23:12;9.30;99.90
6142;DHT22;71289;51.552;6.210;2024-03-06T10:25:38;9.80;99.90
6142;DHT22;71289;51.552;6.210;2024-03-06T10:28:08;9.70;99.90
6142;DHT22;71289;51.552;6.210;2024-03-06T10:30:36;10.00;99.90
6142;DHT22;71289;51.552;6.210;2024-03-06T10:33:05;10.30;99.90
6142;DHT22;71289;51.552;6.210;2024-03-06T10:35:32;10.60;99.90
6142;DHT22;71289;51.552;6.210;2024-03-06T10:38:00;11.00;99.90
6142;DHT22;71289;51.552;6.210;2024-03-06T10:40:27;11.30;99.90
6142;DHT22;71289;51.552;6.210;2024-03-06T10:42:58;11.50;99.90
6142;DHT22;71289;51.552;6.210;2024-03-06T10:47:58;11.90;99.90
6142;DHT22;71289;51.552;6.210;2024-03-06T10:50:24;12.10;99.90
6142;DHT22;71289;51.552;6.210;2024-03-06T10:52:53;12.50;99.90
6142;DHT22;71289;51.552;6.210;2024-03-06T10:55:20;12.70;99.90
6142;DHT22;71289;51.552;6.210;2024-03-06T10:57:46;12.90;99.90
6142;DHT22;71289;51.552;6.210;2024-03-06T11:00:14;13.00;99.90
6142;DHT22;71289;51.552;6.210;2024-03-06T11:02:46;13.10;99.90
6142;DHT22;71289;51.552;6.210;2024-03-06T11:05:14;13.00;99.90
6142;DHT22;71289;51.552;6.210;2024-03-06T11:07:40;12.50;99.90
6142;DHT22;71289;51.552;6.210;2024-03-06T11:10:06;12.20;99.90
6142;DHT22;71289;51.552;6.210;2024-03-06T11:12:37;12.00;99.90
6142;DHT22;71289;51.552;6.210;2024-03-06T11:15:15;11.90;99.90
6142;DHT22;71289;51.552;6.210;2024-03-06T11:17:42;12.00;99.90
6142;DHT22;71289;51.552;6.210;2024-03-06T11:20:12;11.90;99.90
6142;DHT22;71289;51.552;6.210;2024-03-06T11:28:11;12.10;99.90
6142;DHT22;71289;51.552;6.210;2024-03-06T11:30:48;11.80;99.90
6142;DHT22;71289;51.552;6.210;2024-03-06T11:33:20;11.70;99.90
6142;DHT22;71289;51.552;6.210;2024-03-06T11:38:41;12.70;99.90
6142;DHT22;71289;51.552;6.210;2024-03-06T11:41:06;12.80;99.90
6142;DHT22;71289;51.552;6.210;2024-03-06T11:43:42;12.70;99.90
6142;DHT22;71289;51.552;6.210;2024-03-06T11:46:09;12.70;99.90
6142;DHT22;71289;51.552;6.210;2024-03-06T11:48:36;12.90;99.90
6142;DHT22;71289;51.552;6.210;2024-03-06T11:51:02;12.80;99.90
6142;DHT22;71289;51.552;6.210;2024-03-06T11:53:33;12.50;99.90
6142;DHT22;71289;51.552;6.210;2024-03-06T11:55:59;12.50;99.90
6142;DHT22;71289;51.552;6.210;2024-03-06T11:58:24;12.60;99.90
6142;DHT22;71289;51.552;6.210;2024-03-06T12:00:51;12.70;99.90
6142;DHT22;71289;51.552;6.210;2024-03-06T12:03:17;12.80;99.90
6142;DHT22;71289;51.552;6.210;2024-03-06T12:05:44;12.90;99.90
6142;DHT22;71289;51.552;6.210;2024-03-06T12:08:11;12.70;99.90
6142;DHT22;71289;51.552;6.210;2024-03-06T12:10:37;12.70;99.90
6142;DHT22;71289;51.552;6.210;2024-03-06T12:13:04;12.80;99.90
6142;DHT22;71289;51.552;6.210;2024-03-06T12:15:30;12.80;99.90
6142;DHT22;71289;51.552;6.210;2024-03-06T12:17:56;12.50;99.90
6142;DHT22;71289;51.552;6.210;2024-03-06T12:20:23;12.50;99.90
6142;DHT22;71289;51.552;6.210;2024-03-06T12:22:50;12.50;99.90
6142;DHT22;71289;51.552;6.210;2024-03-06T12:25:24;12.50;99.90
6142;DHT22;71289;51.552;6.210;2024-03-06T12:27:50;12.40;99.90
6142;DHT22;71289;51.552;6.210;2024-03-06T12:30:17;12.40;99.90
6142;DHT22;71289;51.552;6.210;2024-03-06T12:32:59;12.30;99.90
6142;DHT22;71289;51.552;6.210;2024-03-06T12:35:25;12.20;99.90
6142;DHT22;71289;51.552;6.210;2024-03-06T12:37:51;12.10;99.90
6142;DHT22;71289;51.552;6.210;2024-03-06T12:40:21;12.10;99.90
6142;DHT22;71289;51.552;6.210;2024-03-06T12:42:47;12.00;99.90
6142;DHT22;71289;51.552;6.210;2024-03-06T12:45:13;12.00;99.90
6142;DHT22;71289;51.552;6.210;2024-03-06T12:47:42;12.00;99.90
6142;DHT22;71289;51.552;6.210;2024-03-06T12:50:08;11.80;99.90
6142;DHT22;71289;51.552;6.210;2024-03-06T12:52:36;11.90;99.90
6142;DHT22;71289;51.552;6.210;2024-03-06T12:55:01;12.00;99.90
6142;DHT22;71289;51.552;6.210;2024-03-06T12:57:27;11.90;99.90
6142;DHT22;71289;51.552;6.210;2024-03-06T12:59:53;11.70;99.90
6142;DHT22;71289;51.552;6.210;2024-03-06T13:02:19;12.10;99.90
6142;DHT22;71289;51.552;6.210;2024-03-06T13:04:44;11.90;99.90
6142;DHT22;71289;51.552;6.210;2024-03-06T13:07:11;11.90;99.90
6142;DHT22;71289;51.552;6.210;2024-03-06T13:09:37;11.90;99.90
6142;DHT22;71289;51.552;6.210;2024-03-06T13:12:04;12.10;99.90
6142;DHT22;71289;51.552;6.210;2024-03-06T13:14:29;12.10;99.90
6142;DHT22;71289;51.552;6.210;2024-03-06T13:16:56;12.20;99.90
6142;DHT22;71289;51.552;6.210;2024-03-06T13:19:21;12.00;99.90
6142;DHT22;71289;51.552;6.210;2024-03-06T13:21:47;12.20;99.90
6142;DHT22;71289;51.552;6.210;2024-03-06T13:24:13;12.20;99.90
6142;DHT22;71289;51.552;6.210;2024-03-06T13:26:39;12.20;99.90
6142;DHT22;71289;51.552;6.210;2024-03-06T13:29:06;12.30;99.90
6142;DHT22;71289;51.552;6.210;2024-03-06T13:31:32;12.20;99.90
6142;DHT22;71289;51.552;6.210;2024-03-06T13:34:00;12.20;99.90
6142;DHT22;71289;51.552;6.210;2024-03-06T13:36:25;12.10;99.90
6142;DHT22;71289;51.552;6.210;2024-03-06T13:38:51;12.00;99.90
6142;DHT22;71289;51.552;6.210;2024-03-06T13:41:17;12.10;99.90
6142;DHT22;71289;51.552;6.210;2024-03-06T13:43:43;12.10;99.90
6142;DHT22;71289;51.552;6.210;2024-03-06T13:46:09;12.20;99.90
6142;DHT22;71289;51.552;6.210;2024-03-06T13:48:34;12.00;99.90
6142;DHT22;71289;51.552;6.210;2024-03-06T13:51:01;12.00;99.90
6142;DHT22;71289;51.552;6.210;2024-03-06T13:53:27;11.90;99.90
6142;DHT22;71289;51.552;6.210;2024-03-06T13:55:52;12.00;99.90
6142;DHT22;71289;51.552;6.210;2024-03-06T13:58:18;12.00;99.90
6142;DHT22;71289;51.552;6.210;2024-03-06T14:00:44;12.00;99.90
6142;DHT22;71289;51.552;6.210;2024-03-06T14:03:10;12.20;99.90
6142;DHT22;71289;51.552;6.210;2024-03-06T14:05:38;12.10;99.90
6142;DHT22;71289;51.552;6.210;2024-03-06T14:08:05;12.10;99.90
6142;DHT22;71289;51.552;6.210;2024-03-06T14:10:31;12.00;99.90
6142;DHT22;71289;51.552;6.210;2024-03-06T14:13:02;11.90;99.90
6142;DHT22;71289;51.552;6.210;2024-03-06T14:15:27;11.90;99.90
6142;DHT22;71289;51.552;6.210;2024-03-06T14:17:53;11.80;99.90
6142;DHT22;71289;51.552;6.210;2024-03-06T14:20:20;12.00;99.90
6142;DHT22;71289;51.552;6.210;2024-03-06T14:22:45;11.90;99.90
6142;DHT22;71289;51.552;6.210;2024-03-06T14:25:11;11.90;99.90
6142;DHT22;71289;51.552;6.210;2024-03-06T14:27:37;12.20;99.90
6142;DHT22;71289;51.552;6.210;2024-03-06T14:30:04;12.00;99.90
6142;DHT22;71289;51.552;6.210;2024-03-06T14:32:32;12.00;99.90
6142;DHT22;71289;51.552;6.210;2024-03-06T14:34:58;12.40;99.90
6142;DHT22;71289;51.552;6.210;2024-03-06T14:37:24;12.20;99.90
6142;DHT22;71289;51.552;6.210;2024-03-06T14:39:49;12.00;99.90
6142;DHT22;71289;51.552;6.210;2024-03-06T14:42:16;12.00;99.90
6142;DHT22;71289;51.552;6.210;2024-03-06T14:44:42;12.00;99.90
6142;DHT22;71289;51.552;6.210;2024-03-06T14:47:11;12.20;99.90
6142;DHT22;71289;51.552;6.210;2024-03-06T14:49:37;12.20;99.90
6142;DHT22;71289;51.552;6.210;2024-03-06T14:52:03;12.30;99.90
6142;DHT22;71289;51.552;6.210;2024-03-06T14:54:29;12.30;99.90
6142;DHT22;71289;51.552;6.210;2024-03-06T14:56:55;12.20;99.90
6142;DHT22;71289;51.552;6.210;2024-03-06T14:59:21;12.10;99.90
6142;DHT22;71289;51.552;6.210;2024-03-06T15:01:47;12.00;99.90
6142;DHT22;71289;51.552;6.210;2024-03-06T15:04:13;12.00;99.90
6142;DHT22;71289;51.552;6.210;2024-03-06T15:06:39;12.00;99.90
6142;DHT22;71289;51.552;6.210;2024-03-06T15:09:05;12.00;99.90
6142;DHT22;71289;51.552;6.210;2024-03-06T15:11:31;11.90;99.90
6142;DHT22;71289;51.552;6.210;2024-03-06T15:14:01;12.00;99.90
6142;DHT22;71289;51.552;6.210;2024-03-06T15:16:26;12.00;99.90
6142;DHT22;71289;51.552;6.210;2024-03-06T15:18:52;12.00;99.90
6142;DHT22;71289;51.552;6.210;2024-03-06T15:21:19;11.90;99.90
6142;DHT22;71289;51.552;6.210;2024-03-06T15:23:44;12.00;99.90
6142;DHT22;71289;51.552;6.210;2024-03-06T15:26:10;11.90;99.90
6142;DHT22;71289;51.552;6.210;2024-03-06T15:28:36;11.80;99.90
6142;DHT22;71289;51.552;6.210;2024-03-06T15:31:02;12.00;99.90
6142;DHT22;71289;51.552;6.210;2024-03-06T15:33:32;11.90;99.90
6142;DHT22;71289;51.552;6.210;2024-03-06T15:35:58;11.80;99.90
6142;DHT22;71289;51.552;6.210;2024-03-06T15:38:25;11.90;99.90
6142;DHT22;71289;51.552;6.210;2024-03-06T15:40:52;12.00;99.90
6142;DHT22;71289;51.552;6.210;2024-03-06T15:43:18;12.00;99.90
6142;DHT22;71289;51.552;6.210;2024-03-06T15:45:44;12.00;99.90
6142;DHT22;71289;51.552;6.210;2024-03-06T15:48:09;12.20;99.90
6142;DHT22;71289;51.552;6.210;2024-03-06T15:50:42;11.90;99.90
6142;DHT22;71289;51.552;6.210;2024-03-06T15:53:09;12.00;99.90
6142;DHT22;71289;51.552;6.210;2024-03-06T15:55:35;11.90;99.90
6142;DHT22;71289;51.552;6.210;2024-03-06T15:58:04;11.80;99.90
6142;DHT22;71289;51.552;6.210;2024-03-06T16:00:30;11.80;99.90
6142;DHT22;71289;51.552;6.210;2024-03-06T16:02:56;11.90;99.90
6142;DHT22;71289;51.552;6.210;2024-03-06T16:05:23;12.00;99.90